sensor_id;sensor_type;location;lat;lon;timestamp;P1;durP1;ratioP1;P2;durP2;ratioP2
65567;SDS011;52211;50.154;8.682;2022-10-31T00:01:35;8.47;;;6.50;;
65567;SDS011;52211;50.154;8.682;2022-10-31T00:04:04;8.40;;;6.17;;
65567;SDS011;52211;50.154;8.682;2022-10-31T00:06:36;6.97;;;5.50;;
65567;SDS011;52211;50.154;8.682;2022-10-31T00:09:05;8.87;;;6.50;;
65567;SDS011;52211;50.154;8.682;2022-10-31T00:11:35;8.33;;;7.63;;
65567;SDS011;52211;50.154;8.682;2022-10-31T00:14:03;7.20;;;6.43;;
65567;SDS011;52211;50.154;8.682;2022-10-31T00:16:33;8.03;;;7.03;;
65567;SDS011;52211;50.154;8.682;2022-10-31T00:19:01;7.93;;;6.80;;
65567;SDS011;52211;50.154;8.682;2022-10-31T00:21:34;8.70;;;6.67;;
65567;SDS011;52211;50.154;8.682;2022-10-31T00:24:02;8.30;;;6.40;;
65567;SDS011;52211;50.154;8.682;2022-10-31T00:26:29;7.67;;;5.80;;
65567;SDS011;52211;50.154;8.682;2022-10-31T00:29:01;9.93;;;6.03;;
65567;SDS011;52211;50.154;8.682;2022-10-31T00:31:29;8.70;;;6.27;;
65567;SDS011;52211;50.154;8.682;2022-10-31T00:34:02;6.50;;;5.63;;
65567;SDS011;52211;50.154;8.682;2022-10-31T00:36:31;7.50;;;5.70;;
65567;SDS011;52211;50.154;8.682;2022-10-31T00:39:04;6.93;;;6.23;;
65567;SDS011;52211;50.154;8.682;2022-10-31T00:41:35;6.97;;;5.97;;
65567;SDS011;52211;50.154;8.682;2022-10-31T00:44:07;7.23;;;6.27;;
65567;SDS011;52211;50.154;8.682;2022-10-31T00:46:36;6.70;;;5.90;;
65567;SDS011;52211;50.154;8.682;2022-10-31T00:49:04;9.33;;;6.93;;
65567;SDS011;52211;50.154;8.682;2022-10-31T00:51:31;6.67;;;5.77;;
65567;SDS011;52211;50.154;8.682;2022-10-31T00:53:58;6.07;;;5.47;;
65567;SDS011;52211;50.154;8.682;2022-10-31T00:56:27;7.70;;;6.13;;
65567;SDS011;52211;50.154;8.682;2022-10-31T00:58:58;7.10;;;5.73;;
65567;SDS011;52211;50.154;8.682;2022-10-31T01:01:25;7.00;;;5.60;;
65567;SDS011;52211;50.154;8.682;2022-10-31T01:03:52;7.47;;;6.13;;
65567;SDS011;52211;50.154;8.682;2022-10-31T01:06:22;7.60;;;5.93;;
65567;SDS011;52211;50.154;8.682;2022-10-31T01:08:55;6.43;;;5.83;;
65567;SDS011;52211;50.154;8.682;2022-10-31T01:11:27;6.77;;;5.73;;
65567;SDS011;52211;50.154;8.682;2022-10-31T01:13:57;7.83;;;6.03;;
65567;SDS011;52211;50.154;8.682;2022-10-31T01:16:26;6.80;;;6.03;;
65567;SDS011;52211;50.154;8.682;2022-10-31T01:18:58;8.57;;;5.87;;
65567;SDS011;52211;50.154;8.682;2022-10-31T01:21:28;7.40;;;5.80;;
65567;SDS011;52211;50.154;8.682;2022-10-31T01:23:57;6.60;;;5.77;;
65567;SDS011;52211;50.154;8.682;2022-10-31T01:26:29;9.40;;;5.23;;
65567;SDS011;52211;50.154;8.682;2022-10-31T01:29:03;6.93;;;5.57;;
65567;SDS011;52211;50.154;8.682;2022-10-31T01:31:38;6.70;;;6.00;;
65567;SDS011;52211;50.154;8.682;2022-10-31T01:34:08;8.57;;;5.47;;
65567;SDS011;52211;50.154;8.682;2022-10-31T01:36:41;9.50;;;5.93;;
65567;SDS011;52211;50.154;8.682;2022-10-31T01:39:11;10.57;;;6.13;;
65567;SDS011;52211;50.154;8.682;2022-10-31T01:41:48;7.67;;;5.27;;
65567;SDS011;52211;50.154;8.682;2022-10-31T01:49:54;7.40;;;5.63;;
65567;SDS011;52211;50.154;8.682;2022-10-31T01:57:57;7.40;;;5.50;;
65567;SDS011;52211;50.154;8.682;2022-10-31T02:00:35;5.90;;;4.97;;
65567;SDS011;52211;50.154;8.682;2022-10-31T02:03:06;8.70;;;4.63;;
65567;SDS011;52211;50.154;8.682;2022-10-31T02:05:37;5.70;;;5.10;;
65567;SDS011;52211;50.154;8.682;2022-10-31T02:08:11;6.00;;;5.50;;
65567;SDS011;52211;50.154;8.682;2022-10-31T02:10:40;7.67;;;5.53;;
65567;SDS011;52211;50.154;8.682;2022-10-31T02:13:12;5.53;;;5.03;;
65567;SDS011;52211;50.154;8.682;2022-10-31T02:15:45;6.63;;;4.40;;
65567;SDS011;52211;50.154;8.682;2022-10-31T02:18:20;5.70;;;5.13;;
65567;SDS011;52211;50.154;8.682;2022-10-31T02:23:52;5.40;;;4.87;;
65567;SDS011;52211;50.154;8.682;2022-10-31T02:43:52;5.37;;;4.63;;
65567;SDS011;52211;50.154;8.682;2022-10-31T02:46:34;5.20;;;4.60;;
65567;SDS011;52211;50.154;8.682;2022-10-31T02:49:35;5.33;;;4.80;;
65567;SDS011;52211;50.154;8.682;2022-10-31T02:52:33;4.80;;;4.27;;
65567;SDS011;52211;50.154;8.682;2022-10-31T02:55:46;6.20;;;5.10;;
65567;SDS011;52211;50.154;8.682;2022-10-31T02:58:08;5.53;;;4.60;;
65567;SDS011;52211;50.154;8.682;2022-10-31T03:01:13;6.30;;;5.43;;
65567;SDS011;52211;50.154;8.682;2022-10-31T03:07:24;5.50;;;5.00;;
65567;SDS011;52211;50.154;8.682;2022-10-31T03:13:06;6.33;;;5.33;;
65567;SDS011;52211;50.154;8.682;2022-10-31T03:15:49;5.80;;;5.17;;
65567;SDS011;52211;50.154;8.682;2022-10-31T03:18:30;5.40;;;4.80;;
65567;SDS011;52211;50.154;8.682;2022-10-31T03:21:05;6.23;;;4.77;;
65567;SDS011;52211;50.154;8.682;2022-10-31T03:23:47;11.53;;;5.73;;
65567;SDS011;52211;50.154;8.682;2022-10-31T03:26:22;6.30;;;5.30;;
65567;SDS011;52211;50.154;8.682;2022-10-31T03:29:00;5.70;;;5.20;;
65567;SDS011;52211;50.154;8.682;2022-10-31T03:31:36;5.33;;;4.57;;
65567;SDS011;52211;50.154;8.682;2022-10-31T03:34:17;7.63;;;4.97;;
65567;SDS011;52211;50.154;8.682;2022-10-31T03:36:47;5.50;;;5.00;;
65567;SDS011;52211;50.154;8.682;2022-10-31T03:39:20;5.70;;;4.57;;
65567;SDS011;52211;50.154;8.682;2022-10-31T03:44:59;7.07;;;4.83;;
65567;SDS011;52211;50.154;8.682;2022-10-31T03:47:39;5.83;;;5.03;;
65567;SDS011;52211;50.154;8.682;2022-10-31T03:50:09;8.53;;;4.87;;
65567;SDS011;52211;50.154;8.682;2022-10-31T03:52:53;6.87;;;4.77;;
65567;SDS011;52211;50.154;8.682;2022-10-31T03:55:31;8.50;;;5.70;;
65567;SDS011;52211;50.154;8.682;2022-10-31T03:58:24;6.33;;;4.67;;
65567;SDS011;52211;50.154;8.682;2022-10-31T04:01:27;5.27;;;4.77;;
65567;SDS011;52211;50.154;8.682;2022-10-31T04:04:03;5.83;;;4.40;;
65567;SDS011;52211;50.154;8.682;2022-10-31T04:06:34;7.40;;;4.70;;
65567;SDS011;52211;50.154;8.682;2022-10-31T04:09:09;5.43;;;4.30;;
65567;SDS011;52211;50.154;8.682;2022-10-31T04:11:44;5.03;;;4.53;;
65567;SDS011;52211;50.154;8.682;2022-10-31T04:14:53;9.13;;;4.83;;
65567;SDS011;52211;50.154;8.682;2022-10-31T04:17:24;4.33;;;3.93;;
65567;SDS011;52211;50.154;8.682;2022-10-31T04:20:00;7.77;;;5.30;;
65567;SDS011;52211;50.154;8.682;2022-10-31T04:22:30;4.90;;;4.40;;
65567;SDS011;52211;50.154;8.682;2022-10-31T04:25:01;8.67;;;5.63;;
65567;SDS011;52211;50.154;8.682;2022-10-31T04:27:32;6.47;;;4.87;;
65567;SDS011;52211;50.154;8.682;2022-10-31T04:30:06;5.27;;;4.40;;
65567;SDS011;52211;50.154;8.682;2022-10-31T04:32:37;7.20;;;5.03;;
65567;SDS011;52211;50.154;8.682;2022-10-31T04:35:07;5.73;;;5.10;;
65567;SDS011;52211;50.154;8.682;2022-10-31T04:37:34;5.40;;;4.90;;
65567;SDS011;52211;50.154;8.682;2022-10-31T04:40:02;7.30;;;5.80;;
65567;SDS011;52211;50.154;8.682;2022-10-31T04:42:53;7.90;;;5.30;;
65567;SDS011;52211;50.154;8.682;2022-10-31T04:45:21;5.33;;;4.50;;
65567;SDS011;52211;50.154;8.682;2022-10-31T04:47:51;5.33;;;4.80;;
65567;SDS011;52211;50.154;8.682;2022-10-31T04:50:21;5.13;;;4.57;;
65567;SDS011;52211;50.154;8.682;2022-10-31T04:52:48;6.63;;;5.23;;
65567;SDS011;52211;50.154;8.682;2022-10-31T04:55:24;7.83;;;4.77;;
65567;SDS011;52211;50.154;8.682;2022-10-31T04:58:09;6.33;;;4.90;;
65567;SDS011;52211;50.154;8.682;2022-10-31T05:00:45;5.80;;;5.10;;
65567;SDS011;52211;50.154;8.682;2022-10-31T05:03:13;5.83;;;4.57;;
65567;SDS011;52211;50.154;8.682;2022-10-31T05:05:45;5.10;;;4.70;;
65567;SDS011;52211;50.154;8.682;2022-10-31T05:08:15;5.43;;;4.93;;
65567;SDS011;52211;50.154;8.682;2022-10-31T05:10:42;6.40;;;4.67;;
65567;SDS011;52211;50.154;8.682;2022-10-31T05:13:11;6.20;;;4.97;;
65567;SDS011;52211;50.154;8.682;2022-10-31T05:16:19;4.03;;;3.63;;
65567;SDS011;52211;50.154;8.682;2022-10-31T05:19:24;4.40;;;3.70;;
65567;SDS011;52211;50.154;8.682;2022-10-31T05:22:17;5.97;;;5.37;;
65567;SDS011;52211;50.154;8.682;2022-10-31T05:24:45;6.20;;;4.57;;
65567;SDS011;52211;50.154;8.682;2022-10-31T05:27:17;5.63;;;4.97;;
65567;SDS011;52211;50.154;8.682;2022-10-31T05:29:44;5.50;;;5.00;;
65567;SDS011;52211;50.154;8.682;2022-10-31T05:32:16;5.47;;;4.50;;
65567;SDS011;52211;50.154;8.682;2022-10-31T05:35:25;4.87;;;4.37;;
65567;SDS011;52211;50.154;8.682;2022-10-31T05:38:22;4.87;;;4.33;;
65567;SDS011;52211;50.154;8.682;2022-10-31T05:40:54;5.63;;;5.00;;
65567;SDS011;52211;50.154;8.682;2022-10-31T05:43:30;4.97;;;4.47;;
65567;SDS011;52211;50.154;8.682;2022-10-31T05:46:03;4.80;;;4.40;;
65567;SDS011;52211;50.154;8.682;2022-10-31T05:48:59;5.37;;;4.57;;
65567;SDS011;52211;50.154;8.682;2022-10-31T05:51:49;5.77;;;5.00;;
65567;SDS011;52211;50.154;8.682;2022-10-31T05:54:23;5.50;;;4.97;;
65567;SDS011;52211;50.154;8.682;2022-10-31T05:56:52;5.37;;;4.83;;
65567;SDS011;52211;50.154;8.682;2022-10-31T05:59:20;4.77;;;4.27;;
65567;SDS011;52211;50.154;8.682;2022-10-31T06:01:49;4.57;;;3.97;;
65567;SDS011;52211;50.154;8.682;2022-10-31T06:04:46;6.27;;;4.77;;
65567;SDS011;52211;50.154;8.682;2022-10-31T06:07:13;6.63;;;4.87;;
65567;SDS011;52211;50.154;8.682;2022-10-31T06:09:42;5.97;;;4.67;;
65567;SDS011;52211;50.154;8.682;2022-10-31T06:12:10;7.30;;;5.03;;
65567;SDS011;52211;50.154;8.682;2022-10-31T06:15:08;5.93;;;4.87;;
65567;SDS011;52211;50.154;8.682;2022-10-31T06:17:35;7.00;;;5.07;;
65567;SDS011;52211;50.154;8.682;2022-10-31T06:20:27;5.37;;;4.63;;
65567;SDS011;52211;50.154;8.682;2022-10-31T06:23:04;5.80;;;5.20;;
65567;SDS011;52211;50.154;8.682;2022-10-31T06:25:33;6.80;;;6.07;;
65567;SDS011;52211;50.154;8.682;2022-10-31T06:28:02;6.47;;;5.23;;
65567;SDS011;52211;50.154;8.682;2022-10-31T06:30:43;5.40;;;4.90;;
65567;SDS011;52211;50.154;8.682;2022-10-31T06:33:13;7.07;;;6.07;;
65567;SDS011;52211;50.154;8.682;2022-10-31T06:35:45;6.27;;;4.93;;
65567;SDS011;52211;50.154;8.682;2022-10-31T06:38:16;8.03;;;5.70;;
65567;SDS011;52211;50.154;8.682;2022-10-31T06:40:44;6.37;;;5.80;;
65567;SDS011;52211;50.154;8.682;2022-10-31T06:43:24;6.23;;;5.03;;
65567;SDS011;52211;50.154;8.682;2022-10-31T06:46:16;5.90;;;5.30;;
65567;SDS011;52211;50.154;8.682;2022-10-31T06:48:59;5.83;;;5.23;;
65567;SDS011;52211;50.154;8.682;2022-10-31T06:51:48;6.87;;;5.10;;
65567;SDS011;52211;50.154;8.682;2022-10-31T06:54:20;6.90;;;5.23;;
65567;SDS011;52211;50.154;8.682;2022-10-31T06:56:50;5.30;;;4.77;;
65567;SDS011;52211;50.154;8.682;2022-10-31T06:59:22;8.43;;;5.77;;
65567;SDS011;52211;50.154;8.682;2022-10-31T07:02:09;14.20;;;6.57;;
65567;SDS011;52211;50.154;8.682;2022-10-31T07:04:38;7.50;;;6.80;;
65567;SDS011;52211;50.154;8.682;2022-10-31T07:07:14;8.63;;;7.03;;
65567;SDS011;52211;50.154;8.682;2022-10-31T07:09:44;10.13;;;6.13;;
65567;SDS011;52211;50.154;8.682;2022-10-31T07:12:18;6.30;;;5.70;;
65567;SDS011;52211;50.154;8.682;2022-10-31T07:14:55;6.87;;;5.73;;
65567;SDS011;52211;50.154;8.682;2022-10-31T07:17:24;6.00;;;5.40;;
65567;SDS011;52211;50.154;8.682;2022-10-31T07:19:59;6.97;;;5.60;;
65567;SDS011;52211;50.154;8.682;2022-10-31T07:22:32;6.67;;;5.50;;
65567;SDS011;52211;50.154;8.682;2022-10-31T07:25:02;5.90;;;5.30;;
65567;SDS011;52211;50.154;8.682;2022-10-31T07:27:54;5.27;;;4.77;;
65567;SDS011;52211;50.154;8.682;2022-10-31T07:30:26;6.33;;;5.07;;
65567;SDS011;52211;50.154;8.682;2022-10-31T07:32:55;6.07;;;5.20;;
65567;SDS011;52211;50.154;8.682;2022-10-31T07:35:56;8.83;;;5.10;;
65567;SDS011;52211;50.154;8.682;2022-10-31T07:38:29;6.20;;;5.20;;
65567;SDS011;52211;50.154;8.682;2022-10-31T07:41:02;5.67;;;4.83;;
65567;SDS011;52211;50.154;8.682;2022-10-31T07:43:38;5.27;;;4.77;;
65567;SDS011;52211;50.154;8.682;2022-10-31T07:46:35;6.73;;;4.73;;
65567;SDS011;52211;50.154;8.682;2022-10-31T07:49:25;7.87;;;5.23;;
65567;SDS011;52211;50.154;8.682;2022-10-31T07:52:13;6.30;;;4.50;;
65567;SDS011;52211;50.154;8.682;2022-10-31T07:55:04;5.03;;;4.53;;
65567;SDS011;52211;50.154;8.682;2022-10-31T07:57:34;8.13;;;5.03;;
65567;SDS011;52211;50.154;8.682;2022-10-31T08:00:03;5.53;;;5.00;;
65567;SDS011;52211;50.154;8.682;2022-10-31T08:02:40;5.13;;;4.63;;
65567;SDS011;52211;50.154;8.682;2022-10-31T08:05:30;4.53;;;4.13;;
65567;SDS011;52211;50.154;8.682;2022-10-31T08:08:18;5.40;;;4.90;;
65567;SDS011;52211;50.154;8.682;2022-10-31T08:10:51;7.90;;;5.00;;
65567;SDS011;52211;50.154;8.682;2022-10-31T08:13:25;5.43;;;4.37;;
65567;SDS011;52211;50.154;8.682;2022-10-31T08:15:55;4.93;;;4.53;;
65567;SDS011;52211;50.154;8.682;2022-10-31T08:18:31;8.90;;;5.50;;
65567;SDS011;52211;50.154;8.682;2022-10-31T08:21:07;5.90;;;4.13;;
65567;SDS011;52211;50.154;8.682;2022-10-31T08:23:35;5.03;;;4.53;;
65567;SDS011;52211;50.154;8.682;2022-10-31T08:26:06;4.60;;;4.20;;
65567;SDS011;52211;50.154;8.682;2022-10-31T08:28:33;5.50;;;5.00;;
65567;SDS011;52211;50.154;8.682;2022-10-31T08:31:04;5.47;;;4.47;;
65567;SDS011;52211;50.154;8.682;2022-10-31T08:34:02;6.60;;;4.90;;
65567;SDS011;52211;50.154;8.682;2022-10-31T08:36:51;4.63;;;4.23;;
65567;SDS011;52211;50.154;8.682;2022-10-31T08:39:27;5.93;;;5.33;;
65567;SDS011;52211;50.154;8.682;2022-10-31T08:41:58;6.23;;;4.83;;
65567;SDS011;52211;50.154;8.682;2022-10-31T08:44:25;11.30;;;5.03;;
65567;SDS011;52211;50.154;8.682;2022-10-31T08:46:56;6.70;;;5.50;;
65567;SDS011;52211;50.154;8.682;2022-10-31T08:49:26;6.67;;;5.67;;
65567;SDS011;52211;50.154;8.682;2022-10-31T08:51:53;5.67;;;5.17;;
65567;SDS011;52211;50.154;8.682;2022-10-31T08:54:20;6.07;;;5.43;;
65567;SDS011;52211;50.154;8.682;2022-10-31T08:56:55;6.83;;;6.13;;
65567;SDS011;52211;50.154;8.682;2022-10-31T08:59:39;6.60;;;5.87;;
65567;SDS011;52211;50.154;8.682;2022-10-31T09:02:24;7.30;;;6.10;;
65567;SDS011;52211;50.154;8.682;2022-10-31T09:04:58;6.53;;;5.60;;
65567;SDS011;52211;50.154;8.682;2022-10-31T09:07:33;6.63;;;6.03;;
65567;SDS011;52211;50.154;8.682;2022-10-31T09:10:02;6.93;;;5.90;;
65567;SDS011;52211;50.154;8.682;2022-10-31T09:12:32;6.67;;;5.97;;
65567;SDS011;52211;50.154;8.682;2022-10-31T09:15:20;6.20;;;5.50;;
65567;SDS011;52211;50.154;8.682;2022-10-31T09:17:54;7.03;;;6.33;;
65567;SDS011;52211;50.154;8.682;2022-10-31T09:20:31;7.90;;;6.53;;
65567;SDS011;52211;50.154;8.682;2022-10-31T09:23:09;7.10;;;6.40;;
65567;SDS011;52211;50.154;8.682;2022-10-31T09:25:42;6.20;;;5.60;;
65567;SDS011;52211;50.154;8.682;2022-10-31T09:28:42;6.47;;;5.77;;
65567;SDS011;52211;50.154;8.682;2022-10-31T09:31:15;7.30;;;6.10;;
65567;SDS011;52211;50.154;8.682;2022-10-31T09:34:13;10.93;;;6.47;;
65567;SDS011;52211;50.154;8.682;2022-10-31T09:36:45;7.57;;;6.33;;
65567;SDS011;52211;50.154;8.682;2022-10-31T09:39:18;8.17;;;6.87;;
65567;SDS011;52211;50.154;8.682;2022-10-31T09:45:04;7.60;;;6.37;;
65567;SDS011;52211;50.154;8.682;2022-10-31T09:51:10;7.47;;;6.20;;
65567;SDS011;52211;50.154;8.682;2022-10-31T09:54:18;6.70;;;5.87;;
65567;SDS011;52211;50.154;8.682;2022-10-31T09:57:13;6.00;;;5.40;;
65567;SDS011;52211;50.154;8.682;2022-10-31T09:59:53;7.87;;;5.67;;
65567;SDS011;52211;50.154;8.682;2022-10-31T10:05:18;6.87;;;6.10;;
65567;SDS011;52211;50.154;8.682;2022-10-31T10:08:31;8.47;;;6.40;;
65567;SDS011;52211;50.154;8.682;2022-10-31T10:14:36;9.63;;;6.60;;
65567;SDS011;52211;50.154;8.682;2022-10-31T10:20:23;7.43;;;6.47;;
65567;SDS011;52211;50.154;8.682;2022-10-31T10:26:00;8.70;;;7.00;;
65567;SDS011;52211;50.154;8.682;2022-10-31T10:28:43;8.17;;;7.03;;
65567;SDS011;52211;50.154;8.682;2022-10-31T10:31:20;7.93;;;6.33;;
65567;SDS011;52211;50.154;8.682;2022-10-31T10:34:05;13.37;;;7.10;;
65567;SDS011;52211;50.154;8.682;2022-10-31T10:39:29;10.60;;;7.23;;
65567;SDS011;52211;50.154;8.682;2022-10-31T10:42:10;8.47;;;7.57;;
65567;SDS011;52211;50.154;8.682;2022-10-31T10:44:59;8.43;;;7.07;;
65567;SDS011;52211;50.154;8.682;2022-10-31T10:50:55;8.33;;;7.50;;
65567;SDS011;52211;50.154;8.682;2022-10-31T10:56:36;8.23;;;7.43;;
65567;SDS011;52211;50.154;8.682;2022-10-31T10:59:16;7.83;;;6.73;;
65567;SDS011;52211;50.154;8.682;2022-10-31T11:01:50;8.20;;;6.97;;
65567;SDS011;52211;50.154;8.682;2022-10-31T11:04:24;9.60;;;7.17;;
65567;SDS011;52211;50.154;8.682;2022-10-31T11:06:58;11.73;;;7.00;;
65567;SDS011;52211;50.154;8.682;2022-10-31T11:10:02;8.23;;;7.33;;
65567;SDS011;52211;50.154;8.682;2022-10-31T11:12:33;9.83;;;6.87;;
65567;SDS011;52211;50.154;8.682;2022-10-31T11:15:07;11.03;;;6.73;;
65567;SDS011;52211;50.154;8.682;2022-10-31T11:17:54;11.37;;;7.27;;
65567;SDS011;52211;50.154;8.682;2022-10-31T11:20:29;7.53;;;6.83;;
65567;SDS011;52211;50.154;8.682;2022-10-31T11:23:02;11.90;;;6.53;;
65567;SDS011;52211;50.154;8.682;2022-10-31T11:25:57;7.10;;;6.00;;
65567;SDS011;52211;50.154;8.682;2022-10-31T11:28:30;8.23;;;6.43;;
65567;SDS011;52211;50.154;8.682;2022-10-31T11:31:04;7.77;;;6.17;;
65567;SDS011;52211;50.154;8.682;2022-10-31T11:33:49;15.40;;;6.87;;
65567;SDS011;52211;50.154;8.682;2022-10-31T11:36:46;6.87;;;6.17;;
65567;SDS011;52211;50.154;8.682;2022-10-31T11:39:25;7.13;;;6.43;;
65567;SDS011;52211;50.154;8.682;2022-10-31T11:41:59;8.83;;;6.10;;
65567;SDS011;52211;50.154;8.682;2022-10-31T11:44:36;6.23;;;5.60;;
65567;SDS011;52211;50.154;8.682;2022-10-31T11:47:15;7.93;;;6.03;;
65567;SDS011;52211;50.154;8.682;2022-10-31T11:49:50;7.17;;;4.87;;
65567;SDS011;52211;50.154;8.682;2022-10-31T11:52:26;6.90;;;5.93;;
65567;SDS011;52211;50.154;8.682;2022-10-31T11:57:43;6.10;;;5.10;;
65567;SDS011;52211;50.154;8.682;2022-10-31T12:00:32;6.17;;;5.50;;
65567;SDS011;52211;50.154;8.682;2022-10-31T12:03:15;8.37;;;6.00;;
65567;SDS011;52211;50.154;8.682;2022-10-31T12:08:55;7.10;;;5.77;;
65567;SDS011;52211;50.154;8.682;2022-10-31T12:23:09;6.20;;;4.97;;
65567;SDS011;52211;50.154;8.682;2022-10-31T12:25:56;5.33;;;4.80;;
65567;SDS011;52211;50.154;8.682;2022-10-31T12:34:33;5.33;;;4.40;;
65567;SDS011;52211;50.154;8.682;2022-10-31T12:37:42;5.03;;;4.53;;
65567;SDS011;52211;50.154;8.682;2022-10-31T12:40:32;6.67;;;4.30;;
65567;SDS011;52211;50.154;8.682;2022-10-31T12:43:42;6.73;;;4.63;;
65567;SDS011;52211;50.154;8.682;2022-10-31T12:52:29;7.77;;;4.07;;
65567;SDS011;52211;50.154;8.682;2022-10-31T13:01:21;7.37;;;3.80;;
65567;SDS011;52211;50.154;8.682;2022-10-31T13:04:13;4.20;;;3.80;;
65567;SDS011;52211;50.154;8.682;2022-10-31T13:07:05;6.17;;;4.77;;
65567;SDS011;52211;50.154;8.682;2022-10-31T13:09:49;6.67;;;3.47;;
65567;SDS011;52211;50.154;8.682;2022-10-31T13:12:36;4.13;;;3.77;;
65567;SDS011;52211;50.154;8.682;2022-10-31T13:17:48;6.80;;;4.33;;
65567;SDS011;52211;50.154;8.682;2022-10-31T13:20:44;6.57;;;3.80;;
65567;SDS011;52211;50.154;8.682;2022-10-31T13:29:00;6.67;;;3.43;;
65567;SDS011;52211;50.154;8.682;2022-10-31T13:31:38;7.90;;;3.97;;
65567;SDS011;52211;50.154;8.682;2022-10-31T13:39:39;6.33;;;4.00;;
65567;SDS011;52211;50.154;8.682;2022-10-31T13:45:34;4.37;;;3.43;;
65567;SDS011;52211;50.154;8.682;2022-10-31T13:50:58;4.10;;;3.50;;
65567;SDS011;52211;50.154;8.682;2022-10-31T13:53:39;5.50;;;4.13;;
65567;SDS011;52211;50.154;8.682;2022-10-31T14:01:35;5.43;;;3.83;;
65567;SDS011;52211;50.154;8.682;2022-10-31T14:04:22;5.10;;;3.67;;
65567;SDS011;52211;50.154;8.682;2022-10-31T14:07:04;10.30;;;4.70;;
65567;SDS011;52211;50.154;8.682;2022-10-31T14:09:37;5.20;;;3.03;;
65567;SDS011;52211;50.154;8.682;2022-10-31T14:12:36;4.87;;;3.70;;
65567;SDS011;52211;50.154;8.682;2022-10-31T14:15:13;6.83;;;4.03;;
65567;SDS011;52211;50.154;8.682;2022-10-31T14:20:24;4.67;;;4.07;;
65567;SDS011;52211;50.154;8.682;2022-10-31T14:29:20;6.60;;;3.33;;
65567;SDS011;52211;50.154;8.682;2022-10-31T14:31:53;5.13;;;4.07;;
65567;SDS011;52211;50.154;8.682;2022-10-31T14:34:55;5.10;;;3.30;;
65567;SDS011;52211;50.154;8.682;2022-10-31T14:37:48;4.87;;;3.47;;
65567;SDS011;52211;50.154;8.682;2022-10-31T14:41:00;4.47;;;3.87;;
65567;SDS011;52211;50.154;8.682;2022-10-31T14:43:43;4.73;;;4.07;;
65567;SDS011;52211;50.154;8.682;2022-10-31T14:52:52;4.43;;;3.43;;
65567;SDS011;52211;50.154;8.682;2022-10-31T14:55:30;5.10;;;4.27;;
65567;SDS011;52211;50.154;8.682;2022-10-31T14:57:59;3.73;;;3.43;;
65567;SDS011;52211;50.154;8.682;2022-10-31T15:00:32;4.63;;;3.80;;
65567;SDS011;52211;50.154;8.682;2022-10-31T15:05:42;5.37;;;3.80;;
65567;SDS011;52211;50.154;8.682;2022-10-31T15:08:34;6.00;;;4.10;;
65567;SDS011;52211;50.154;8.682;2022-10-31T15:11:16;5.73;;;4.10;;
65567;SDS011;52211;50.154;8.682;2022-10-31T15:16:33;3.37;;;3.07;;
65567;SDS011;52211;50.154;8.682;2022-10-31T15:19:13;4.97;;;4.27;;
65567;SDS011;52211;50.154;8.682;2022-10-31T15:21:52;5.47;;;4.00;;
65567;SDS011;52211;50.154;8.682;2022-10-31T15:24:22;6.37;;;3.67;;
65567;SDS011;52211;50.154;8.682;2022-10-31T15:27:02;5.33;;;3.50;;
65567;SDS011;52211;50.154;8.682;2022-10-31T15:29:50;4.63;;;4.03;;
65567;SDS011;52211;50.154;8.682;2022-10-31T15:32:25;6.70;;;3.50;;
65567;SDS011;52211;50.154;8.682;2022-10-31T15:34:56;7.23;;;4.47;;
65567;SDS011;52211;50.154;8.682;2022-10-31T15:37:23;5.27;;;3.60;;
65567;SDS011;52211;50.154;8.682;2022-10-31T15:40:06;6.33;;;3.97;;
65567;SDS011;52211;50.154;8.682;2022-10-31T15:42:49;6.27;;;3.67;;
65567;SDS011;52211;50.154;8.682;2022-10-31T15:45:26;5.13;;;4.50;;
65567;SDS011;52211;50.154;8.682;2022-10-31T15:50:35;4.93;;;3.67;;
65567;SDS011;52211;50.154;8.682;2022-10-31T15:56:23;5.23;;;3.90;;
65567;SDS011;52211;50.154;8.682;2022-10-31T15:58:55;5.20;;;3.80;;
65567;SDS011;52211;50.154;8.682;2022-10-31T16:01:30;7.30;;;4.27;;
65567;SDS011;52211;50.154;8.682;2022-10-31T16:12:18;5.70;;;4.70;;
65567;SDS011;52211;50.154;8.682;2022-10-31T16:14:52;8.07;;;4.90;;
65567;SDS011;52211;50.154;8.682;2022-10-31T16:17:22;6.40;;;4.93;;
65567;SDS011;52211;50.154;8.682;2022-10-31T16:20:00;5.93;;;4.50;;
65567;SDS011;52211;50.154;8.682;2022-10-31T16:22:34;6.70;;;4.43;;
65567;SDS011;52211;50.154;8.682;2022-10-31T16:27:47;11.77;;;9.33;;
65567;SDS011;52211;50.154;8.682;2022-10-31T16:30:30;11.70;;;8.33;;
65567;SDS011;52211;50.154;8.682;2022-10-31T16:33:25;7.60;;;6.73;;
65567;SDS011;52211;50.154;8.682;2022-10-31T16:36:28;7.77;;;5.53;;
65567;SDS011;52211;50.154;8.682;2022-10-31T16:39:01;7.50;;;5.77;;
65567;SDS011;52211;50.154;8.682;2022-10-31T16:41:31;5.60;;;4.93;;
65567;SDS011;52211;50.154;8.682;2022-10-31T16:44:12;7.60;;;5.07;;
65567;SDS011;52211;50.154;8.682;2022-10-31T16:46:45;6.90;;;3.97;;
65567;SDS011;52211;50.154;8.682;2022-10-31T16:49:32;6.07;;;5.33;;
65567;SDS011;52211;50.154;8.682;2022-10-31T16:52:01;6.53;;;5.20;;
65567;SDS011;52211;50.154;8.682;2022-10-31T16:54:31;7.03;;;5.30;;
65567;SDS011;52211;50.154;8.682;2022-10-31T16:56:59;10.07;;;4.93;;
65567;SDS011;52211;50.154;8.682;2022-10-31T16:59:31;5.00;;;4.50;;
65567;SDS011;52211;50.154;8.682;2022-10-31T17:02:02;6.60;;;5.63;;
65567;SDS011;52211;50.154;8.682;2022-10-31T17:04:41;7.53;;;5.03;;
65567;SDS011;52211;50.154;8.682;2022-10-31T17:07:10;5.87;;;4.77;;
65567;SDS011;52211;50.154;8.682;2022-10-31T17:09:42;5.70;;;4.93;;
65567;SDS011;52211;50.154;8.682;2022-10-31T17:12:17;8.30;;;4.67;;
65567;SDS011;52211;50.154;8.682;2022-10-31T17:14:51;8.47;;;4.50;;
65567;SDS011;52211;50.154;8.682;2022-10-31T17:17:25;5.10;;;4.60;;
65567;SDS011;52211;50.154;8.682;2022-10-31T17:19:52;5.80;;;4.63;;
65567;SDS011;52211;50.154;8.682;2022-10-31T17:22:26;4.93;;;4.43;;
65567;SDS011;52211;50.154;8.682;2022-10-31T17:24:53;5.37;;;4.53;;
65567;SDS011;52211;50.154;8.682;2022-10-31T17:27:22;5.97;;;5.37;;
65567;SDS011;52211;50.154;8.682;2022-10-31T17:29:52;5.93;;;4.60;;
65567;SDS011;52211;50.154;8.682;2022-10-31T17:32:19;5.50;;;4.83;;
65567;SDS011;52211;50.154;8.682;2022-10-31T17:34:46;5.37;;;4.87;;
65567;SDS011;52211;50.154;8.682;2022-10-31T17:37:15;7.07;;;4.63;;
65567;SDS011;52211;50.154;8.682;2022-10-31T17:39:42;6.70;;;5.10;;
65567;SDS011;52211;50.154;8.682;2022-10-31T17:42:12;7.17;;;5.17;;
65567;SDS011;52211;50.154;8.682;2022-10-31T17:44:41;4.90;;;4.47;;
65567;SDS011;52211;50.154;8.682;2022-10-31T17:47:08;7.43;;;5.37;;
65567;SDS011;52211;50.154;8.682;2022-10-31T17:49:37;5.77;;;5.20;;
65567;SDS011;52211;50.154;8.682;2022-10-31T17:52:06;8.57;;;6.77;;
65567;SDS011;52211;50.154;8.682;2022-10-31T17:54:35;8.90;;;6.87;;
65567;SDS011;52211;50.154;8.682;2022-10-31T17:57:02;7.47;;;6.10;;
65567;SDS011;52211;50.154;8.682;2022-10-31T17:59:36;8.73;;;6.23;;
65567;SDS011;52211;50.154;8.682;2022-10-31T18:02:09;13.80;;;6.83;;
65567;SDS011;52211;50.154;8.682;2022-10-31T18:04:41;8.03;;;6.23;;
65567;SDS011;52211;50.154;8.682;2022-10-31T18:07:12;11.20;;;6.10;;
65567;SDS011;52211;50.154;8.682;2022-10-31T18:09:47;7.63;;;5.80;;
65567;SDS011;52211;50.154;8.682;2022-10-31T18:12:14;8.23;;;5.97;;
65567;SDS011;52211;50.154;8.682;2022-10-31T18:14:44;6.80;;;5.53;;
65567;SDS011;52211;50.154;8.682;2022-10-31T18:17:17;8.43;;;5.67;;
65567;SDS011;52211;50.154;8.682;2022-10-31T18:19:45;10.47;;;5.83;;
65567;SDS011;52211;50.154;8.682;2022-10-31T18:22:15;9.23;;;6.67;;
65567;SDS011;52211;50.154;8.682;2022-10-31T18:24:42;8.43;;;6.00;;
65567;SDS011;52211;50.154;8.682;2022-10-31T18:27:11;7.30;;;6.60;;
65567;SDS011;52211;50.154;8.682;2022-10-31T18:29:40;9.27;;;6.27;;
65567;SDS011;52211;50.154;8.682;2022-10-31T18:32:12;8.60;;;6.73;;
65567;SDS011;52211;50.154;8.682;2022-10-31T18:34:39;9.87;;;6.57;;